Time;durP1;ratioP1;P1;durP2;ratioP2;P2;SDS_P1;SDS_P2;PMS_P1;PMS_P2;Temp;Humidity;BMP_temperature;BMP_pressure;BME280_temperature;BME280_humidity;BME280_pressure;Samples;Min_cycle;Max_cycle;Signal;HPM_P1;HPM_P2
2023/10/21 00:02:15;;;;;;;80.07;39.47;;;10.40;99.90;;;;;;4979998;28;20041;-81
2023/10/21 00:04:41;;;;;;;82.57;39.47;;;10.30;99.90;;;;;;4994187;28;20033;-81
2023/10/21 00:07:06;;;;;;;101.77;46.70;;;10.40;99.90;;;;;;4980598;28;20466;-81
2023/10/21 00:09:32;;;;;;;89.60;41.17;;;10.30;99.90;;;;;;4978603;28;20486;-81
2023/10/21 00:11:58;;;;;;;100.53;45.70;;;10.30;99.90;;;;;;4999089;28;20091;-81
2023/10/21 00:14:23;;;;;;;81.53;42.17;;;10.30;99.90;;;;;;4998465;28;20041;-81
2023/10/21 00:16:50;;;;;;;80.43;38.67;;;10.30;99.90;;;;;;5023874;28;20547;-80
2023/10/21 00:19:15;;;;;;;87.20;40.08;;;10.30;99.90;;;;;;5002234;28;20438;-81
2023/10/21 00:21:41;;;;;;;100.53;43.43;;;10.20;99.90;;;;;;4993771;28;20039;-80
2023/10/21 00:24:07;;;;;;;92.43;40.67;;;10.20;99.90;;;;;;5013374;28;20049;-80
2023/10/21 00:26:49;;;;;;;91.77;40.17;;;10.20;99.90;;;;;;5030215;28;20040;-81
2023/10/21 00:29:16;;;;;;;78.25;41.97;;;10.20;99.90;;;;;;5011362;28;20045;-81
2023/10/21 00:31:43;;;;;;;94.43;42.83;;;10.10;99.90;;;;;;5030228;28;20103;-81
2023/10/21 00:34:12;;;;;;;104.27;44.67;;;10.10;99.90;;;;;;5021786;28;20057;-81
2023/10/21 00:36:38;;;;;;;82.20;39.95;;;10.10;99.90;;;;;;4994302;28;20052;-81
2023/10/21 00:39:10;;;;;;;89.13;42.53;;;10.10;99.90;;;;;;5012392;28;20117;-81
2023/10/21 00:41:37;;;;;;;92.53;41.57;;;10.10;99.90;;;;;;4989778;28;20156;-81
2023/10/21 00:44:04;;;;;;;74.68;37.65;;;10.10;99.90;;;;;;4994335;28;20042;-81
2023/10/21 00:46:30;;;;;;;90.03;40.77;;;10.00;99.90;;;;;;5010929;28;20474;-81
2023/10/21 00:48:56;;;;;;;76.53;36.60;;;10.00;99.90;;;;;;4976277;28;20048;-81
2023/10/21 00:51:22;;;;;;;76.83;37.73;;;10.00;99.90;;;;;;5013921;28;20041;-81
2023/10/21 00:53:48;;;;;;;92.07;39.90;;;10.00;99.90;;;;;;4986359;28;20038;-81
2023/10/21 00:56:14;;;;;;;79.20;39.73;;;10.00;99.90;;;;;;5027602;28;20037;-81
2023/10/21 00:58:40;;;;;;;87.73;39.43;;;10.00;99.90;;;;;;5013208;28;20056;-81
2023/10/21 01:01:08;;;;;;;81.03;37.97;;;10.00;99.90;;;;;;5003693;28;20038;-81
2023/10/21 01:03:34;;;;;;;98.57;42.83;;;10.00;99.90;;;;;;4994695;28;20449;-81
2023/10/21 01:06:00;;;;;;;83.03;40.13;;;10.00;99.90;;;;;;4994564;28;20414;-81
2023/10/21 01:08:26;;;;;;;94.53;41.13;;;10.00;99.90;;;;;;4978171;28;20100;-81
2023/10/21 01:10:52;;;;;;;97.40;42.63;;;10.00;99.90;;;;;;4997774;28;20211;-81
2023/10/21 01:13:18;;;;;;;106.70;42.50;;;9.90;99.90;;;;;;4983484;28;20124;-81
2023/10/21 01:15:44;;;;;;;86.57;39.37;;;9.90;99.90;;;;;;5014150;28;20131;-81
2023/10/21 01:18:10;;;;;;;67.53;35.90;;;9.90;99.90;;;;;;5003025;28;20044;-81
2023/10/21 01:20:41;;;;;;;83.93;38.63;;;9.90;99.90;;;;;;5009749;28;20050;-81
2023/10/21 01:23:14;;;;;;;71.20;36.47;;;9.90;99.90;;;;;;4993854;28;20049;-81
2023/10/21 01:25:40;;;;;;;75.17;37.00;;;9.90;99.90;;;;;;5015654;28;20548;-81
2023/10/21 01:28:05;;;;;;;69.97;35.97;;;9.90;99.90;;;;;;5017482;28;20057;-82
2023/10/21 01:30:31;;;;;;;66.10;33.77;;;9.90;99.90;;;;;;4990588;28;20049;-82
2023/10/21 01:32:57;;;;;;;66.83;35.53;;;9.90;99.90;;;;;;4997588;28;20133;-82
2023/10/21 01:35:22;;;;;;;73.07;35.60;;;9.90;99.90;;;;;;5000440;28;20049;-82
2023/10/21 01:37:49;;;;;;;68.00;35.43;;;9.90;99.90;;;;;;4967092;28;20084;-81
2023/10/21 01:40:14;;;;;;;73.53;35.70;;;9.90;99.90;;;;;;4967135;28;20116;-84
2023/10/21 01:42:40;;;;;;;69.20;34.63;;;9.90;99.90;;;;;;5000650;28;20037;-82
2023/10/21 01:45:08;;;;;;;69.50;34.13;;;9.90;99.90;;;;;;5030562;28;21410;-83
2023/10/21 01:47:35;;;;;;;63.03;32.03;;;9.90;99.90;;;;;;4997605;28;20367;-81
2023/10/21 01:50:02;;;;;;;67.43;33.03;;;9.90;99.90;;;;;;5014128;28;20052;-81
2023/10/21 01:52:29;;;;;;;70.00;33.90;;;9.90;99.90;;;;;;4997544;28;20056;-81
2023/10/21 01:54:54;;;;;;;70.03;34.07;;;9.90;99.90;;;;;;4981315;28;20401;-81
2023/10/21 01:57:20;;;;;;;61.37;32.57;;;9.90;99.90;;;;;;5008172;28;20052;-82
2023/10/21 01:59:46;;;;;;;68.97;32.97;;;9.90;99.90;;;;;;5033354;28;20546;-82
2023/10/21 02:02:12;;;;;;;68.77;34.83;;;9.90;99.90;;;;;;5027613;28;20161;-86
2023/10/21 02:04:38;;;;;;;66.23;33.30;;;9.90;99.90;;;;;;5000692;28;20117;-84
2023/10/21 02:07:04;;;;;;;86.03;37.33;;;9.90;99.90;;;;;;4976140;28;20036;-83
2023/10/21 02:09:29;;;;;;;69.93;34.50;;;9.90;99.90;;;;;;4976902;28;20057;-83
2023/10/21 02:11:56;;;;;;;71.30;35.90;;;9.90;99.90;;;;;;5015974;28;20064;-82
2023/10/21 02:14:23;;;;;;;72.17;34.97;;;9.90;99.90;;;;;;5003186;28;20042;-82
2023/10/21 02:16:53;;;;;;;79.57;37.13;;;9.90;99.90;;;;;;5015522;28;20052;-82
2023/10/21 02:19:19;;;;;;;64.07;32.97;;;9.90;99.90;;;;;;5002788;28;20045;-82
2023/10/21 02:21:46;;;;;;;63.47;33.23;;;9.90;99.90;;;;;;5007375;28;20034;-81
2023/10/21 02:24:12;;;;;;;72.77;34.77;;;9.90;99.90;;;;;;5010525;28;20052;-81
2023/10/21 02:26:37;;;;;;;71.93;34.53;;;9.90;99.90;;;;;;4991328;28;20113;-81
2023/10/21 02:29:03;;;;;;;64.47;32.67;;;9.90;99.90;;;;;;5015835;28;20107;-81
2023/10/21 02:31:29;;;;;;;56.93;31.43;;;9.90;99.90;;;;;;4997677;28;20041;-82
2023/10/21 02:33:55;;;;;;;80.30;37.07;;;9.90;99.90;;;;;;5006596;28;20099;-81
2023/10/21 02:36:21;;;;;;;70.37;34.37;;;9.90;99.90;;;;;;5006106;28;20482;-88
2023/10/21 02:38:47;;;;;;;78.13;35.43;;;9.90;99.90;;;;;;4980182;28;20042;-84
2023/10/21 02:41:13;;;;;;;75.67;36.03;;;9.90;99.90;;;;;;4996477;28;20096;-81
2023/10/21 02:43:39;;;;;;;72.83;35.60;;;10.00;99.90;;;;;;4990947;28;20046;-81
2023/10/21 02:46:12;;;;;;;67.87;33.47;;;9.90;99.90;;;;;;4991188;28;20034;-81
2023/10/21 02:48:43;;;;;;;59.47;31.30;;;9.90;99.90;;;;;;4995169;28;20069;-81
2023/10/21 02:51:11;;;;;;;69.67;32.97;;;10.00;99.90;;;;;;5004648;28;20044;-81
2023/10/21 02:53:37;;;;;;;69.40;35.73;;;10.00;99.90;;;;;;4992438;28;20041;-81
2023/10/21 02:56:06;;;;;;;66.33;34.10;;;10.00;99.90;;;;;;4989131;28;20038;-81
2023/10/21 02:58:36;;;;;;;61.80;33.27;;;10.00;99.90;;;;;;5014257;28;20502;-81
2023/10/21 03:01:12;;;;;;;65.80;33.70;;;10.00;99.90;;;;;;4988699;28;20048;-81
2023/10/21 03:03:37;;;;;;;67.10;33.67;;;10.00;99.90;;;;;;5021397;28;20493;-81
2023/10/21 03:06:03;;;;;;;79.80;35.77;;;10.00;99.90;;;;;;5004353;28;20037;-81
2023/10/21 03:08:29;;;;;;;64.40;33.37;;;10.00;99.90;;;;;;4985649;28;20042;-83
2023/10/21 03:10:55;;;;;;;64.97;31.93;;;10.00;99.90;;;;;;4995865;28;20413;-81
2023/10/21 03:13:21;;;;;;;54.90;30.10;;;10.00;99.90;;;;;;5001654;28;20080;-81
2023/10/21 03:15:46;;;;;;;62.90;31.73;;;10.00;99.90;;;;;;4980921;28;20073;-82
2023/10/21 03:18:12;;;;;;;56.90;31.20;;;10.00;99.90;;;;;;4992272;28;20120;-82
2023/10/21 03:20:38;;;;;;;61.23;31.37;;;10.00;99.90;;;;;;4991136;28;20046;-82
2023/10/21 03:23:04;;;;;;;66.83;33.17;;;10.00;99.90;;;;;;4994631;28;20041;-81
2023/10/21 03:25:30;;;;;;;64.33;32.17;;;10.00;99.90;;;;;;4994469;28;20038;-82
2023/10/21 03:27:56;;;;;;;57.33;31.27;;;10.00;99.90;;;;;;5003446;28;20052;-81
2023/10/21 03:30:22;;;;;;;54.57;30.83;;;10.00;99.90;;;;;;5007477;28;20382;-81
2023/10/21 03:32:47;;;;;;;60.43;31.93;;;10.10;99.90;;;;;;5006674;28;20041;-82
2023/10/21 03:35:13;;;;;;;52.87;29.63;;;10.00;99.90;;;;;;5009201;28;20077;-86
2023/10/21 03:37:39;;;;;;;59.43;30.77;;;10.10;99.90;;;;;;4983060;28;20095;-81
2023/10/21 03:40:10;;;;;;;52.03;28.17;;;10.10;99.90;;;;;;4984782;28;20049;-81
2023/10/21 03:42:38;;;;;;;54.00;28.50;;;10.10;99.90;;;;;;4998866;28;20041;-85
2023/10/21 03:45:05;;;;;;;57.07;29.80;;;10.10;99.90;;;;;;5001341;28;20042;-82
2023/10/21 03:47:31;;;;;;;52.30;27.53;;;10.10;99.90;;;;;;4995293;28;20045;-81
2023/10/21 03:49:57;;;;;;;57.20;28.70;;;10.10;99.90;;;;;;4980139;28;20046;-81
2023/10/21 03:52:23;;;;;;;45.27;26.63;;;10.20;99.90;;;;;;5014023;28;20072;-81
2023/10/21 03:54:49;;;;;;;52.50;28.08;;;10.10;99.90;;;;;;5002646;28;20155;-81
2023/10/21 03:57:14;;;;;;;46.70;25.57;;;10.20;99.90;;;;;;4982017;28;20051;-81
2023/10/21 03:59:40;;;;;;;45.63;26.47;;;10.10;99.90;;;;;;4990605;28;20489;-82
2023/10/21 04:02:07;;;;;;;44.40;25.17;;;10.10;99.90;;;;;;4980237;28;20046;-81
2023/10/21 04:04:33;;;;;;;45.60;25.87;;;10.20;99.90;;;;;;4993350;28;20052;-85
2023/10/21 04:06:59;;;;;;;49.27;27.57;;;10.20;99.90;;;;;;5003578;28;20456;-81
2023/10/21 04:09:26;;;;;;;41.80;24.33;;;10.20;99.90;;;;;;4983707;28;20037;-82
2023/10/21 04:11:53;;;;;;;42.22;24.15;;;10.20;99.90;;;;;;4992929;28;20038;-81
2023/10/21 04:14:18;;;;;;;42.42;23.83;;;10.30;99.90;;;;;;5001053;28;20065;-81
2023/10/21 04:16:44;;;;;;;47.80;25.37;;;10.30;99.90;;;;;;5007250;28;20073;-81
2023/10/21 04:19:13;;;;;;;42.60;24.63;;;10.30;99.90;;;;;;5013625;28;20033;-81
2023/10/21 04:21:38;;;;;;;46.40;24.10;;;10.30;99.90;;;;;;4996029;28;20065;-81
2023/10/21 04:24:05;;;;;;;40.70;24.13;;;10.30;99.90;;;;;;4995751;28;20498;-81
2023/10/21 04:26:30;;;;;;;42.50;24.80;;;10.40;99.90;;;;;;4992890;28;20125;-81
2023/10/21 04:28:56;;;;;;;41.80;23.48;;;10.40;99.90;;;;;;5007323;28;20124;-81
2023/10/21 04:31:22;;;;;;;44.50;24.73;;;10.40;99.90;;;;;;5009944;28;20129;-81
2023/10/21 04:33:48;;;;;;;41.53;23.60;;;10.40;99.90;;;;;;5020663;28;20057;-81
2023/10/21 04:36:20;;;;;;;39.73;22.20;;;10.40;99.90;;;;;;4998183;28;20044;-81
2023/10/21 04:38:45;;;;;;;39.58;23.90;;;10.40;99.90;;;;;;5011039;28;20363;-81
2023/10/21 04:41:11;;;;;;;38.10;21.30;;;10.40;99.90;;;;;;4972866;28;20128;-81
2023/10/21 04:43:37;;;;;;;38.55;21.95;;;10.40;99.90;;;;;;4994496;28;20052;-82
2023/10/21 04:46:02;;;;;;;38.23;23.60;;;10.40;99.90;;;;;;4996834;28;20037;-81
2023/10/21 04:48:28;;;;;;;33.20;21.77;;;10.40;99.90;;;;;;4980620;28;20077;-82
2023/10/21 04:50:54;;;;;;;37.80;21.63;;;10.40;99.90;;;;;;4988941;28;20457;-82
2023/10/21 04:53:19;;;;;;;45.40;23.90;;;10.40;99.90;;;;;;4978977;28;20060;-82
2023/10/21 04:55:45;;;;;;;34.78;20.90;;;10.40;99.90;;;;;;5013564;28;20044;-82
2023/10/21 04:58:11;;;;;;;32.78;19.95;;;10.40;99.90;;;;;;4989632;28;20057;-82
2023/10/21 05:00:37;;;;;;;39.88;21.77;;;10.40;99.90;;;;;;4985139;28;20482;-82
2023/10/21 05:03:02;;;;;;;31.80;19.35;;;10.30;99.90;;;;;;4988738;28;20033;-82
2023/10/21 05:05:28;;;;;;;32.33;19.73;;;10.30;99.90;;;;;;4987255;28;20049;-82
2023/10/21 05:07:54;;;;;;;28.40;19.53;;;10.30;99.90;;;;;;4984374;28;20034;-82
2023/10/21 05:10:21;;;;;;;30.00;19.35;;;10.30;99.90;;;;;;4982059;28;20437;-82
2023/10/21 05:12:46;;;;;;;32.07;19.30;;;10.30;99.90;;;;;;5004032;28;20045;-82
2023/10/21 05:15:12;;;;;;;31.90;19.10;;;10.30;99.90;;;;;;5006858;28;20405;-82
2023/10/21 05:17:38;;;;;;;33.67;19.80;;;10.30;99.90;;;;;;4972633;28;20057;-82
2023/10/21 05:20:04;;;;;;;31.35;20.05;;;10.30;99.90;;;;;;4983416;28;20037;-82
2023/10/21 05:22:30;;;;;;;27.90;19.00;;;10.30;99.90;;;;;;4995027;28;20389;-82
2023/10/21 05:24:56;;;;;;;28.93;18.80;;;10.30;99.90;;;;;;4986562;28;20041;-82
2023/10/21 05:27:22;;;;;;;31.80;18.93;;;10.30;99.90;;;;;;5033415;28;20049;-82
2023/10/21 05:29:48;;;;;;;25.87;18.93;;;10.30;99.90;;;;;;4998927;28;20502;-82
2023/10/21 05:32:17;;;;;;;33.37;19.00;;;10.30;99.90;;;;;;4988967;28;20104;-82
2023/10/21 05:34:42;;;;;;;30.83;19.00;;;10.30;99.90;;;;;;4982839;28;20045;-82
2023/10/21 05:37:08;;;;;;;30.60;18.48;;;10.30;99.90;;;;;;4996729;28;20108;-81
2023/10/21 05:39:34;;;;;;;29.35;18.90;;;10.30;99.90;;;;;;4981877;28;20038;-81
2023/10/21 05:41:59;;;;;;;27.93;17.40;;;10.30;99.90;;;;;;4997151;28;20401;-81
2023/10/21 05:44:25;;;;;;;29.50;19.83;;;10.30;99.90;;;;;;4988945;28;20068;-81
2023/10/21 05:46:51;;;;;;;31.63;18.50;;;10.30;99.90;;;;;;4977923;28;20576;-82
2023/10/21 05:49:18;;;;;;;31.35;17.75;;;10.30;99.90;;;;;;4987589;28;20144;-82
2023/10/21 05:51:43;;;;;;;29.48;18.00;;;10.40;99.90;;;;;;4977724;28;20052;-82
2023/10/21 05:54:09;;;;;;;26.98;17.33;;;10.40;99.90;;;;;;5001305;28;20037;-81
2023/10/21 05:56:35;;;;;;;27.33;18.25;;;10.40;99.90;;;;;;5012377;28;20157;-81
2023/10/21 05:59:00;;;;;;;29.35;18.60;;;10.40;99.90;;;;;;4998060;28;20041;-82
2023/10/21 06:01:26;;;;;;;27.13;17.43;;;10.30;99.90;;;;;;5017314;28;20041;-81
2023/10/21 06:03:53;;;;;;;26.73;17.48;;;10.40;99.90;;;;;;5014958;28;20486;-81
2023/10/21 06:06:19;;;;;;;27.58;18.63;;;10.40;99.90;;;;;;4975566;28;20034;-81
2023/10/21 06:08:45;;;;;;;26.55;16.75;;;10.40;99.90;;;;;;4986227;28;20041;-81
2023/10/21 06:11:10;;;;;;;25.52;16.50;;;10.40;99.90;;;;;;5030345;28;20045;-81
2023/10/21 06:13:36;;;;;;;22.58;16.25;;;10.50;99.90;;;;;;4980467;28;20077;-81
2023/10/21 06:16:02;;;;;;;24.90;16.60;;;10.50;99.90;;;;;;4980677;28;20041;-81
2023/10/21 06:18:28;;;;;;;27.00;17.52;;;10.50;99.90;;;;;;5013606;28;20045;-82
2023/10/21 06:20:54;;;;;;;26.85;16.73;;;10.50;99.90;;;;;;4967226;28;20610;-82
2023/10/21 06:23:20;;;;;;;30.40;17.27;;;10.50;99.90;;;;;;4986380;28;20053;-82
2023/10/21 06:25:45;;;;;;;27.20;16.35;;;10.50;99.90;;;;;;5012634;28;20052;-82
2023/10/21 06:28:13;;;;;;;26.98;16.60;;;10.50;99.90;;;;;;5000452;28;20042;-83
2023/10/21 06:30:42;;;;;;;29.45;17.52;;;10.60;99.90;;;;;;5018167;28;20490;-81
2023/10/21 06:33:11;;;;;;;25.13;16.23;;;10.60;99.90;;;;;;5008710;28;20046;-82
2023/10/21 06:35:38;;;;;;;23.48;16.00;;;10.60;99.90;;;;;;4991586;28;20060;-83
2023/10/21 06:38:07;;;;;;;24.02;16.00;;;10.60;99.90;;;;;;4991234;28;20049;-82
2023/10/21 06:40:33;;;;;;;27.23;16.35;;;10.60;99.90;;;;;;4991790;28;20048;-80
2023/10/21 06:42:59;;;;;;;25.98;16.38;;;10.70;99.90;;;;;;5011869;28;20038;-84
2023/10/21 06:45:25;;;;;;;29.48;16.73;;;10.70;99.90;;;;;;4979312;28;20044;-81
2023/10/21 06:47:51;;;;;;;27.85;16.45;;;10.80;99.90;;;;;;4994104;28;20640;-81
2023/10/21 06:50:17;;;;;;;25.02;15.73;;;10.80;99.90;;;;;;4995735;28;20092;-81
2023/10/21 06:52:43;;;;;;;23.42;15.32;;;10.80;99.90;;;;;;5012435;28;20083;-82
2023/10/21 06:55:10;;;;;;;23.70;16.23;;;10.80;99.90;;;;;;5013721;28;20050;-82
2023/10/21 06:57:37;;;;;;;27.77;16.02;;;10.90;99.90;;;;;;5027163;28;20144;-82
2023/10/21 07:00:03;;;;;;;26.17;15.27;;;10.90;99.90;;;;;;5001249;28;20037;-82
2023/10/21 07:02:29;;;;;;;25.83;15.93;;;11.00;99.90;;;;;;5011390;28;20079;-82
2023/10/21 07:04:56;;;;;;;23.58;15.73;;;11.00;99.90;;;;;;5012080;28;20069;-83
2023/10/21 07:07:22;;;;;;;24.33;15.82;;;11.10;99.90;;;;;;5011535;28;20058;-85
2023/10/21 07:09:48;;;;;;;25.73;15.40;;;11.20;99.90;;;;;;5015391;28;20057;-83
2023/10/21 07:12:16;;;;;;;30.10;17.00;;;11.20;99.90;;;;;;5017172;28;20430;-85
2023/10/21 07:14:42;;;;;;;27.00;15.95;;;11.30;99.90;;;;;;4998649;28;20297;-84
2023/10/21 07:17:08;;;;;;;25.65;16.10;;;11.40;99.90;;;;;;4994422;28;20049;-82
2023/10/21 07:19:34;;;;;;;24.00;14.73;;;11.40;99.90;;;;;;4977979;28;20046;-81
2023/10/21 07:22:00;;;;;;;23.33;15.43;;;11.40;99.90;;;;;;4996528;28;20037;-82
2023/10/21 07:24:25;;;;;;;23.08;15.60;;;11.50;99.90;;;;;;4994000;28;20113;-82
2023/10/21 07:26:51;;;;;;;23.85;15.57;;;11.50;99.90;;;;;;4995263;28;20120;-82
2023/10/21 07:29:17;;;;;;;24.40;15.38;;;11.50;99.90;;;;;;5011428;28;20096;-82
2023/10/21 07:31:43;;;;;;;27.27;16.08;;;11.50;99.90;;;;;;5020563;28;20056;-82
2023/10/21 07:34:11;;;;;;;26.95;16.42;;;11.60;99.90;;;;;;5011383;28;20062;-81
2023/10/21 07:36:37;;;;;;;24.33;15.63;;;11.60;99.90;;;;;;5015587;28;20052;-81
2023/10/21 07:39:04;;;;;;;26.88;15.77;;;11.60;99.90;;;;;;5007231;28;20041;-81
2023/10/21 07:41:30;;;;;;;28.20;16.65;;;11.60;99.90;;;;;;4992467;28;20603;-82
2023/10/21 07:43:56;;;;;;;28.38;16.77;;;11.60;99.90;;;;;;4961221;28;20132;-82
2023/10/21 07:46:21;;;;;;;26.10;15.63;;;11.70;99.90;;;;;;4986983;28;20394;-83
2023/10/21 07:48:47;;;;;;;25.15;15.50;;;11.70;99.90;;;;;;4986450;28;20046;-82
2023/10/21 07:51:13;;;;;;;25.35;16.40;;;11.70;99.90;;;;;;5004364;28;20037;-81
2023/10/21 07:53:38;;;;;;;23.80;15.18;;;11.70;99.90;;;;;;4993023;28;20370;-81
2023/10/21 07:56:04;;;;;;;21.75;15.32;;;11.80;99.90;;;;;;4995057;28;20041;-83
2023/10/21 07:58:30;;;;;;;26.83;16.33;;;11.80;99.90;;;;;;4993625;28;20049;-84
2023/10/21 08:00:56;;;;;;;26.10;15.85;;;11.90;99.90;;;;;;5010873;28;20101;-83
2023/10/21 08:03:21;;;;;;;23.48;15.85;;;11.90;99.90;;;;;;4975584;28;20054;-84
2023/10/21 08:05:47;;;;;;;24.95;15.15;;;11.90;99.90;;;;;;4966958;28;20056;-82
2023/10/21 08:08:13;;;;;;;26.05;16.27;;;12.00;99.90;;;;;;4989031;28;20521;-82
2023/10/21 08:10:39;;;;;;;27.58;17.02;;;12.10;99.90;;;;;;4993263;28;20066;-82
2023/10/21 08:13:04;;;;;;;27.52;16.35;;;12.10;99.90;;;;;;4995527;28;20042;-88
2023/10/21 08:15:31;;;;;;;24.30;17.05;;;12.20;99.90;;;;;;4957079;28;20038;-83
2023/10/21 08:17:57;;;;;;;24.27;15.75;;;12.30;99.90;;;;;;4990526;28;20041;-87
2023/10/21 08:20:24;;;;;;;23.42;14.98;;;12.30;99.90;;;;;;4980189;28;20510;-84
2023/10/21 08:22:53;;;;;;;22.73;15.15;;;12.40;99.90;;;;;;5004427;28;20048;-83
2023/10/21 08:25:18;;;;;;;24.35;15.23;;;12.50;99.90;;;;;;4957368;28;20046;-83
2023/10/21 08:27:44;;;;;;;22.15;16.05;;;12.60;99.90;;;;;;4989058;28;20544;-84
2023/10/21 08:30:10;;;;;;;27.83;16.25;;;12.70;99.90;;;;;;4981667;28;20133;-84
2023/10/21 08:32:37;;;;;;;25.13;15.85;;;12.80;99.90;;;;;;4980239;28;20391;-84
2023/10/21 08:35:03;;;;;;;22.60;15.23;;;13.00;99.90;;;;;;5003619;28;20054;-84
2023/10/21 08:37:28;;;;;;;23.23;15.10;;;13.00;99.90;;;;;;4996739;28;20053;-84
2023/10/21 08:39:54;;;;;;;21.67;15.40;;;13.10;99.90;;;;;;4981555;28;20095;-85
2023/10/21 08:42:25;;;;;;;21.20;13.68;;;13.20;99.90;;;;;;5002519;28;20049;-84
2023/10/21 08:44:53;;;;;;;21.38;14.10;;;13.30;99.90;;;;;;5008131;28;20034;-85
2023/10/21 08:47:21;;;;;;;22.00;13.55;;;13.40;99.90;;;;;;5007315;28;20077;-85
2023/10/21 08:49:48;;;;;;;18.13;12.90;;;13.50;99.90;;;;;;4985467;28;20054;-86
2023/10/21 08:52:14;;;;;;;16.90;12.35;;;13.60;99.90;;;;;;4988044;28;20386;-87
2023/10/21 08:54:46;;;;;;;17.75;12.00;;;13.70;99.90;;;;;;4989513;28;20430;-87
2023/10/21 08:57:12;;;;;;;16.40;11.77;;;13.70;99.90;;;;;;4989556;28;20123;-90
2023/10/21 08:59:39;;;;;;;14.20;11.18;;;13.80;99.90;;;;;;4991596;28;20522;-85
2023/10/21 09:02:05;;;;;;;14.43;10.57;;;13.90;99.90;;;;;;4992259;28;20053;-85
2023/10/21 09:04:32;;;;;;;16.33;10.48;;;13.90;99.90;;;;;;4991935;28;20676;-86
2023/10/21 09:06:59;;;;;;;12.70;9.77;;;14.00;99.90;;;;;;5002699;28;20464;-84
2023/10/21 09:09:27;;;;;;;14.02;10.30;;;14.10;99.90;;;;;;5006597;28;20077;-88
2023/10/21 09:12:04;;;;;;;15.27;10.27;;;14.10;99.90;;;;;;4991219;28;20117;-86
2023/10/21 09:14:31;;;;;;;14.90;10.20;;;14.20;99.90;;;;;;4997702;28;20052;-86
2023/10/21 09:16:57;;;;;;;16.67;11.02;;;14.30;99.90;;;;;;5014207;28;20049;-87
2023/10/21 09:19:29;;;;;;;11.98;9.43;;;14.40;99.90;;;;;;5012048;28;20522;-87
2023/10/21 09:21:55;;;;;;;17.60;10.55;;;14.40;99.90;;;;;;5011426;28;20831;-84
2023/10/21 09:24:23;;;;;;;13.38;9.05;;;14.30;99.90;;;;;;5010443;28;20026;-87
2023/10/21 09:26:50;;;;;;;12.88;9.05;;;14.40;99.90;;;;;;5009914;28;20042;-84
2023/10/21 09:29:19;;;;;;;13.48;10.20;;;14.30;99.90;;;;;;5013570;28;20034;-86
2023/10/21 09:31:54;;;;;;;12.32;9.80;;;14.30;99.90;;;;;;4995644;28;20053;-85
2023/10/21 09:34:29;;;;;;;13.07;8.90;;;14.30;99.90;;;;;;4988285;28;20054;-89
2023/10/21 09:36:58;;;;;;;13.68;9.15;;;14.30;99.90;;;;;;5022352;28;20046;-86
2023/10/21 09:39:26;;;;;;;14.45;9.05;;;14.30;99.90;;;;;;4991908;28;20046;-85
2023/10/21 09:41:52;;;;;;;9.27;7.75;;;14.30;99.90;;;;;;5003910;28;20057;-84
2023/10/21 09:44:18;;;;;;;10.55;7.57;;;14.30;99.90;;;;;;5011505;28;20161;-84
2023/10/21 09:46:45;;;;;;;11.73;7.15;;;14.30;99.90;;;;;;5014321;28;20416;-84
2023/10/21 09:49:15;;;;;;;12.35;7.03;;;14.30;99.90;;;;;;4996672;28;20081;-88
2023/10/21 09:51:56;;;;;;;9.85;5.95;;;14.30;99.90;;;;;;5000889;28;20041;-87
2023/10/21 09:54:42;;;;;;;6.60;5.70;;;14.30;99.90;;;;;;4990271;28;20073;-85
2023/10/21 09:57:12;;;;;;;9.13;5.13;;;14.30;99.90;;;;;;4997238;28;20808;-84
2023/10/21 09:59:44;;;;;;;6.90;4.40;;;14.20;99.90;;;;;;5017915;28;20042;-83
2023/10/21 10:02:11;;;;;;;;;;;14.30;99.90;;;;;;5009754;28;20077;-85
2023/10/21 10:04:38;;;;;;;5.03;3.72;;;14.20;99.90;;;;;;5007347;28;20019;-85
2023/10/21 10:07:07;;;;;;;5.22;3.35;;;14.20;99.90;;;;;;4996581;28;20095;-84
2023/10/21 10:09:39;;;;;;;5.55;4.00;;;14.20;99.90;;;;;;4995760;28;20046;-86
2023/10/21 10:12:27;;;;;;;5.68;3.78;;;14.20;99.90;;;;;;5005616;28;20064;-84
2023/10/21 10:14:53;;;;;;;6.22;2.50;;;14.20;99.90;;;;;;4994003;28;20383;-86
2023/10/21 10:17:51;;;;;;;4.10;2.78;;;14.20;99.90;;;;;;5012977;28;20061;-83
2023/10/21 10:20:18;;;;;;;5.18;2.88;;;14.10;99.90;;;;;;5001377;28;20728;-86
2023/10/21 10:22:47;;;;;;;3.08;2.17;;;14.10;99.90;;;;;;4995823;28;20056;-86
2023/10/21 10:25:15;;;;;;;2.97;1.77;;;14.00;99.90;;;;;;5012750;28;20038;-87
2023/10/21 10:27:42;;;;;;;2.50;1.90;;;14.00;99.90;;;;;;5013486;28;20042;-91
2023/10/21 10:30:20;;;;;;;2.78;2.00;;;14.00;99.90;;;;;;4999658;28;20045;-87
2023/10/21 10:32:49;;;;;;;3.53;1.90;;;13.90;99.90;;;;;;5022934;28;20041;-84
2023/10/21 10:35:31;;;;;;;2.50;2.00;;;13.90;99.90;;;;;;4996352;28;20097;-85
2023/10/21 10:38:02;;;;;;;3.50;2.00;;;13.90;99.90;;;;;;5013067;28;20069;-87
2023/10/21 10:40:37;;;;;;;2.08;1.80;;;14.00;99.90;;;;;;5006833;28;20413;-86
2023/10/21 10:43:05;;;;;;;1.95;1.42;;;14.10;99.90;;;;;;4996179;28;20552;-88
2023/10/21 10:45:34;;;;;;;1.58;1.25;;;14.30;99.90;;;;;;5014058;28;20042;-88
2023/10/21 10:48:02;;;;;;;1.38;1.10;;;14.50;99.90;;;;;;4980967;28;20073;-88
2023/10/21 10:50:29;;;;;;;2.08;1.10;;;14.60;99.90;;;;;;5018508;28;20498;-87
2023/10/21 10:52:55;;;;;;;1.20;1.10;;;14.60;99.90;;;;;;5002231;28;20045;-85
2023/10/21 10:55:22;;;;;;;1.63;1.17;;;14.60;99.90;;;;;;4993245;28;20121;-84
2023/10/21 10:57:49;;;;;;;1.75;1.27;;;14.50;99.90;;;;;;4986649;28;20076;-86
2023/10/21 11:00:21;;;;;;;2.33;1.38;;;14.60;99.90;;;;;;4997606;28;20117;-85
2023/10/21 11:02:48;;;;;;;;;;;14.70;99.90;;;;;;5013365;28;20084;-88
2023/10/21 11:05:20;;;;;;;2.63;1.30;;;14.80;99.90;;;;;;5021042;28;19917;-86
2023/10/21 11:07:50;;;;;;;3.85;1.02;;;14.90;99.90;;;;;;5011149;28;20124;-85
2023/10/21 11:10:20;;;;;;;1.77;1.08;;;14.90;99.90;;;;;;5006669;28;20042;-86
2023/10/21 11:12:49;;;;;;;1.08;1.00;;;14.90;99.90;;;;;;4991871;28;20865;-87
2023/10/21 11:15:16;;;;;;;3.20;1.40;;;14.80;99.90;;;;;;4973985;28;20100;-85
2023/10/21 11:17:47;;;;;;;2.47;1.10;;;14.90;99.90;;;;;;5011909;28;20593;-88
2023/10/21 11:20:13;;;;;;;0.98;0.85;;;15.00;99.90;;;;;;4995233;28;20041;-85
2023/10/21 11:22:40;;;;;;;1.73;1.17;;;14.90;99.90;;;;;;5011738;28;20486;-87
2023/10/21 11:25:06;;;;;;;2.38;1.15;;;14.80;99.90;;;;;;4991605;28;20030;-85
2023/10/21 11:27:33;;;;;;;2.65;1.20;;;14.80;99.90;;;;;;5002945;28;20038;-85
2023/10/21 11:30:00;;;;;;;1.95;1.10;;;14.70;99.90;;;;;;5014778;28;20320;-87
2023/10/21 11:32:30;;;;;;;1.10;1.00;;;14.70;99.90;;;;;;5002868;28;20081;-89
2023/10/21 11:35:01;;;;;;;1.83;0.90;;;14.70;99.90;;;;;;4996144;28;20525;-89
2023/10/21 11:37:27;;;;;;;1.73;0.90;;;14.70;99.90;;;;;;4992662;28;20069;-90
2023/10/21 11:39:53;;;;;;;3.33;1.08;;;14.60;99.90;;;;;;5001618;28;20311;-88
2023/10/21 11:42:19;;;;;;;2.30;1.10;;;14.60;99.90;;;;;;4965086;28;20034;-89
2023/10/21 11:44:59;;;;;;;1.42;1.20;;;14.60;99.90;;;;;;5026355;28;20041;-88
2023/10/21 11:47:30;;;;;;;1.48;1.08;;;14.60;99.90;;;;;;5017577;28;20436;-89
2023/10/21 11:49:57;;;;;;;1.35;1.23;;;14.50;99.90;;;;;;5005476;28;20044;-92
2023/10/21 11:52:25;;;;;;;2.38;1.00;;;14.50;99.90;;;;;;5008993;28;20044;-90
2023/10/21 11:55:21;;;;;;;3.42;1.30;;;14.50;99.90;;;;;;4995885;28;20045;-92
2023/10/21 12:38:19;;;;;;;3.08;0.90;;;14.70;99.90;;;;;;5011978;28;20383;-90
2023/10/21 12:40:32;;;;;;;2.17;0.90;;;14.90;99.90;;;;;;4996834;28;20050;-89
2023/10/21 12:45:46;;;;;;;2.42;1.20;;;15.10;99.90;;;;;;5011416;28;20084;-89
2023/10/21 12:48:14;;;;;;;1.73;1.10;;;15.10;99.90;;;;;;4997047;28;20029;-88
2023/10/21 12:50:40;;;;;;;2.03;1.20;;;14.90;99.90;;;;;;5004652;28;20103;-88
2023/10/21 12:53:08;;;;;;;1.42;1.10;;;14.90;99.90;;;;;;5002168;28;20045;-88
2023/10/21 12:55:35;;;;;;;2.70;1.08;;;14.80;99.90;;;;;;4995093;28;20490;-89
2023/10/21 12:58:02;;;;;;;1.58;0.90;;;14.80;99.90;;;;;;5027643;28;20041;-87
2023/10/21 13:00:29;;;;;;;1.92;0.93;;;14.70;99.90;;;;;;4997985;28;20054;-90
2023/10/21 13:02:55;;;;;;;2.65;1.08;;;14.70;99.90;;;;;;5001341;28;20037;-91
2023/10/21 13:05:20;;;;;;;2.72;1.20;;;14.70;99.90;;;;;;5013996;28;20048;-88
2023/10/21 13:07:46;;;;;;;3.55;1.30;;;14.70;99.90;;;;;;5014392;28;20041;-93
2023/10/21 13:10:13;;;;;;;3.13;1.10;;;14.70;99.90;;;;;;5014609;28;20045;-90
2023/10/21 13:12:40;;;;;;;3.60;1.20;;;14.80;99.90;;;;;;5011438;28;20045;-91
2023/10/21 13:15:13;;;;;;;3.50;1.10;;;14.80;99.90;;;;;;5001400;28;20405;-87
2023/10/21 13:17:39;;;;;;;2.22;1.27;;;14.70;99.90;;;;;;4996201;28;20041;-89